KLGA/LGA METAR and TAF weather

Enter ICAO airport designator
Station Type Date Time Source
KLGA METAR 2020/04/03 07:51 UTC NOAA

KLGA 030751Z 34011G23KT 10SM OVC070 09/M01 A2957 RMK AO2 PK WND 31026/0714 RAE32 SLP014 P0000 T00941006


Station Type Date Time Source
KLGA Decoded METAR 2020/04/03 07:51 UTC NOAA

NEW YORK LA GUARDIA AIRPORT , NY, United States (KLGA) 40-47N 73-53W 11M
Apr 03, 2020 - 03:51 AM EDT / 2020.04.03 0751 UTC
Wind: from the NNW (340 degrees) at 13 MPH (11 KT) gusting to 26 MPH (23 KT):0
Visibility: 10 mile(s):0
Sky conditions: overcast
Precipitation last hour: A trace
Temperature: 48.9 F (9.4 C)
Dew Point: 30.9 F (-0.6 C)
Relative Humidity: 49%
Pressure (altimeter): 29.57 in. Hg (1001 hPa)
ob: KLGA 030751Z 34011G23KT 10SM OVC070 09/M01 A2957 RMK AO2 PK WND 31026/0714 RAE32 SLP014 P0000 T00941006
cycle: 8

Station Type Date Time Source
KLGA TAF 2020/04/03 06:36 UTC NOAA

TAF KLGA 030535Z 0306/0412 34015G22KT P6SM -RA SCT020 OVC070
FM031100 34017G27KT P6SM VCSH OVC020
FM040000 36013KT P6SM VCSH BKN020
FM040300 01013KT P6SM OVC022

Example: see airport list